Time;durP1;ratioP1;P1;durP2;ratioP2;P2;SDS_P1;SDS_P2;PMS_P1;PMS_P2;Temp;Humidity;BMP_temperature;BMP_pressure;BME280_temperature;BME280_humidity;BME280_pressure;Samples;Min_cycle;Max_cycle;Signal;HPM_P1;HPM_P2
2024/01/07 00:01:59;;;;;;;31.95;18.23;;;;;;;;;;4795977;29;20057;-81
2024/01/07 00:04:26;;;;;;;28.05;18.02;;;;;;;;;;4798778;29;20074;-82
2024/01/07 00:06:52;;;;;;;31.45;18.05;;;;;;;;;;4782667;29;20057;-81
2024/01/07 00:09:19;;;;;;;28.85;17.77;;;;;;;;;;4794418;29;20086;-81
2024/01/07 00:11:45;;;;;;;33.72;17.90;;;;;;;;;;4802968;29;20058;-80
2024/01/07 00:14:12;;;;;;;30.52;18.10;;;;;;;;;;4799025;29;20094;-80
2024/01/07 00:16:40;;;;;;;29.67;15.88;;;;;;;;;;4798671;29;20054;-81
2024/01/07 00:19:06;;;;;;;32.80;18.03;;;;;;;;;;4806549;29;20058;-79
2024/01/07 00:21:33;;;;;;;27.45;16.58;;;;;;;;;;4797958;29;20067;-80
2024/01/07 00:23:59;;;;;;;35.33;18.70;;;;;;;;;;4792471;29;20054;-81
2024/01/07 00:26:25;;;;;;;31.33;17.00;;;;;;;;;;4800117;29;20165;-80
2024/01/07 00:28:52;;;;;;;40.83;20.65;;;;;;;;;;4796190;29;20062;-80
2024/01/07 00:31:18;;;;;;;34.28;19.00;;;;;;;;;;4793517;29;20500;-80
2024/01/07 00:33:45;;;;;;;36.67;19.30;;;;;;;;;;4793424;29;20055;-78
2024/01/07 00:36:12;;;;;;;35.72;18.50;;;;;;;;;;4785912;29;20081;-78
2024/01/07 00:38:38;;;;;;;37.08;19.13;;;;;;;;;;4797453;29;20061;-78
2024/01/07 00:41:04;;;;;;;34.33;20.70;;;;;;;;;;4792699;29;21308;-78
2024/01/07 00:43:31;;;;;;;36.20;18.90;;;;;;;;;;4797647;29;20124;-78
2024/01/07 00:45:57;;;;;;;35.30;20.85;;;;;;;;;;4797659;29;20115;-78
2024/01/07 00:48:24;;;;;;;36.30;19.98;;;;;;;;;;4801375;29;20138;-78
2024/01/07 00:50:50;;;;;;;38.92;19.77;;;;;;;;;;4797685;29;20134;-78
2024/01/07 00:53:17;;;;;;;39.83;21.10;;;;;;;;;;4792812;29;20195;-78
2024/01/07 00:55:43;;;;;;;42.00;20.45;;;;;;;;;;4796991;29;20112;-78
2024/01/07 00:58:09;;;;;;;36.13;19.45;;;;;;;;;;4795533;29;21312;-78
2024/01/07 01:00:39;;;;;;;40.95;21.60;;;;;;;;;;4787775;29;20059;-78
2024/01/07 01:03:06;;;;;;;37.58;20.27;;;;;;;;;;4809392;29;20054;-78
2024/01/07 01:05:32;;;;;;;39.67;19.77;;;;;;;;;;4792722;29;20090;-77
2024/01/07 01:07:58;;;;;;;36.03;19.75;;;;;;;;;;4797097;29;20377;-78
2024/01/07 01:10:25;;;;;;;39.53;21.08;;;;;;;;;;4799313;29;20153;-78
2024/01/07 01:12:54;;;;;;;32.63;19.65;;;;;;;;;;4806362;29;20050;-78
2024/01/07 01:15:20;;;;;;;38.13;20.70;;;;;;;;;;4793520;29;20051;-77
2024/01/07 01:17:47;;;;;;;35.03;20.27;;;;;;;;;;4791861;29;20058;-77
2024/01/07 01:20:13;;;;;;;32.17;19.00;;;;;;;;;;4797168;29;20059;-78
2024/01/07 01:22:40;;;;;;;34.67;19.95;;;;;;;;;;4808117;29;20046;-77
2024/01/07 01:25:06;;;;;;;34.97;19.75;;;;;;;;;;4797477;29;20103;-77
2024/01/07 01:27:33;;;;;;;31.23;18.30;;;;;;;;;;4796046;29;20055;-77
2024/01/07 01:29:59;;;;;;;32.53;18.60;;;;;;;;;;4787306;29;20050;-78
2024/01/07 01:32:26;;;;;;;30.95;17.75;;;;;;;;;;4798187;29;20545;-77
2024/01/07 01:34:52;;;;;;;29.33;16.58;;;;;;;;;;4808401;29;20051;-76
2024/01/07 01:37:19;;;;;;;30.42;16.95;;;;;;;;;;4801470;29;20146;-77
2024/01/07 01:39:45;;;;;;;31.52;18.50;;;;;;;;;;4815631;29;20082;-77
2024/01/07 01:42:12;;;;;;;29.88;16.90;;;;;;;;;;4794579;29;20059;-77
2024/01/07 01:44:38;;;;;;;28.50;17.25;;;;;;;;;;4798279;29;20121;-78
2024/01/07 01:47:05;;;;;;;31.98;19.77;;;;;;;;;;4809257;29;20108;-77
2024/01/07 01:49:32;;;;;;;27.23;16.02;;;;;;;;;;4801706;29;20081;-77
2024/01/07 01:51:58;;;;;;;29.95;17.70;;;;;;;;;;4802751;29;20054;-77
2024/01/07 01:54:25;;;;;;;28.95;17.55;;;;;;;;;;4795031;29;20062;-77
2024/01/07 01:56:52;;;;;;;30.83;17.73;;;;;;;;;;4798485;29;20073;-78
2024/01/07 01:59:18;;;;;;;28.85;16.90;;;;;;;;;;4806956;29;20082;-78
2024/01/07 02:01:45;;;;;;;28.98;17.40;;;;;;;;;;4801486;29;20407;-78
2024/01/07 02:04:12;;;;;;;26.80;16.27;;;;;;;;;;4804567;29;20440;-78
2024/01/07 02:06:38;;;;;;;27.33;16.83;;;;;;;;;;4811350;29;20082;-78
2024/01/07 02:09:05;;;;;;;29.90;18.15;;;;;;;;;;4801686;29;20123;-79
2024/01/07 02:11:31;;;;;;;29.27;17.48;;;;;;;;;;4794320;29;20089;-79
2024/01/07 02:13:57;;;;;;;30.10;17.60;;;;;;;;;;4797794;29;20163;-78
2024/01/07 02:16:24;;;;;;;31.67;18.50;;;;;;;;;;4810091;29;20481;-79
2024/01/07 02:18:50;;;;;;;31.52;17.50;;;;;;;;;;4801884;29;20137;-79
2024/01/07 02:21:17;;;;;;;30.15;17.00;;;;;;;;;;4798878;29;20051;-77
2024/01/07 02:23:43;;;;;;;31.98;17.83;;;;;;;;;;4799012;29;20074;-78
2024/01/07 02:26:10;;;;;;;34.85;19.65;;;;;;;;;;4812082;29;20046;-78
2024/01/07 02:28:36;;;;;;;34.30;18.55;;;;;;;;;;4793753;29;20115;-79
2024/01/07 02:31:02;;;;;;;37.00;19.10;;;;;;;;;;4801202;29;20129;-79
2024/01/07 02:33:30;;;;;;;35.05;18.35;;;;;;;;;;4797069;29;20115;-79
2024/01/07 02:35:57;;;;;;;33.60;19.83;;;;;;;;;;4797134;29;20511;-79
2024/01/07 02:38:23;;;;;;;35.53;19.73;;;;;;;;;;4799722;29;20058;-78
2024/01/07 02:40:50;;;;;;;36.20;17.52;;;;;;;;;;4791397;29;20574;-79
2024/01/07 02:43:16;;;;;;;33.75;19.45;;;;;;;;;;4800909;29;20547;-78
2024/01/07 02:45:42;;;;;;;33.72;17.73;;;;;;;;;;4794905;29;20111;-78
2024/01/07 02:48:09;;;;;;;30.90;18.05;;;;;;;;;;4801694;29;20458;-79
2024/01/07 02:50:35;;;;;;;30.35;17.20;;;;;;;;;;4812489;29;20062;-78
2024/01/07 02:53:02;;;;;;;33.40;18.23;;;;;;;;;;4793093;29;20062;-78
2024/01/07 02:55:28;;;;;;;32.83;17.83;;;;;;;;;;4797976;29;20055;-79
2024/01/07 02:57:55;;;;;;;30.58;16.55;;;;;;;;;;4794900;29;20063;-79
2024/01/07 03:00:21;;;;;;;29.00;17.45;;;;;;;;;;4801550;29;20566;-80
2024/01/07 03:02:48;;;;;;;28.10;15.38;;;;;;;;;;4803771;29;20051;-78
2024/01/07 03:05:14;;;;;;;23.95;13.73;;;;;;;;;;4796467;29;20557;-79
2024/01/07 03:07:41;;;;;;;24.55;13.65;;;;;;;;;;4795714;29;20050;-79
2024/01/07 03:10:07;;;;;;;24.08;14.52;;;;;;;;;;4792458;29;20059;-78
2024/01/07 03:12:34;;;;;;;24.13;14.68;;;;;;;;;;4819111;29;20507;-79
2024/01/07 03:15:00;;;;;;;24.38;14.35;;;;;;;;;;4812221;29;20059;-78
2024/01/07 03:17:27;;;;;;;23.48;12.88;;;;;;;;;;4800559;29;20066;-79
2024/01/07 03:19:53;;;;;;;18.67;12.82;;;;;;;;;;4800260;29;20826;-79
2024/01/07 03:22:20;;;;;;;20.23;12.10;;;;;;;;;;4789455;29;20046;-79
2024/01/07 03:24:47;;;;;;;17.60;11.57;;;;;;;;;;4796973;29;20054;-78
2024/01/07 03:27:13;;;;;;;17.45;11.43;;;;;;;;;;4790060;29;20057;-77
2024/01/07 03:29:40;;;;;;;18.33;11.38;;;;;;;;;;4814404;29;20090;-79
2024/01/07 03:32:07;;;;;;;17.42;10.25;;;;;;;;;;4799749;29;20059;-79
2024/01/07 03:34:34;;;;;;;18.20;11.73;;;;;;;;;;4794175;29;20457;-79
2024/01/07 03:37:00;;;;;;;16.83;11.20;;;;;;;;;;4796403;29;20059;-78
2024/01/07 03:39:27;;;;;;;16.20;11.05;;;;;;;;;;4790436;29;20059;-79
2024/01/07 03:41:56;;;;;;;14.85;10.07;;;;;;;;;;4813224;29;20086;-79
2024/01/07 03:44:23;;;;;;;17.40;11.18;;;;;;;;;;4811617;29;20051;-79
2024/01/07 03:46:49;;;;;;;17.70;10.90;;;;;;;;;;4795271;29;20129;-79
2024/01/07 03:49:17;;;;;;;16.88;11.77;;;;;;;;;;4800406;29;20707;-79
2024/01/07 03:51:44;;;;;;;18.15;11.43;;;;;;;;;;4807376;29;20043;-78
2024/01/07 03:54:10;;;;;;;18.08;11.82;;;;;;;;;;4797873;29;20105;-78
2024/01/07 03:56:37;;;;;;;17.65;11.48;;;;;;;;;;4809031;29;20070;-78
2024/01/07 03:59:03;;;;;;;17.67;12.15;;;;;;;;;;4795033;29;20481;-78
2024/01/07 04:01:30;;;;;;;16.30;11.20;;;;;;;;;;4803259;29;20055;-78
2024/01/07 04:03:56;;;;;;;17.05;12.38;;;;;;;;;;4796076;29;20720;-78
2024/01/07 04:06:23;;;;;;;18.95;12.38;;;;;;;;;;4794706;29;20388;-77
2024/01/07 04:08:50;;;;;;;16.85;11.88;;;;;;;;;;4793870;29;20061;-78
2024/01/07 04:11:16;;;;;;;16.73;11.93;;;;;;;;;;4799334;29;20055;-78
2024/01/07 04:13:42;;;;;;;16.95;11.57;;;;;;;;;;4799326;29;20055;-77
2024/01/07 04:16:18;;;;;;;17.75;12.65;;;;;;;;;;4793897;29;20051;-78
2024/01/07 04:18:46;;;;;;;18.58;11.93;;;;;;;;;;4789335;29;20062;-79
2024/01/07 04:21:18;;;;;;;18.17;12.43;;;;;;;;;;4793649;29;20050;-78
2024/01/07 04:23:44;;;;;;;16.75;11.85;;;;;;;;;;4797537;29;20051;-78
2024/01/07 04:26:11;;;;;;;20.27;12.35;;;;;;;;;;4794490;29;20586;-78
2024/01/07 04:28:40;;;;;;;21.80;12.88;;;;;;;;;;4797920;29;20058;-78
2024/01/07 04:31:07;;;;;;;20.48;13.13;;;;;;;;;;4799307;29;20047;-78
2024/01/07 04:33:33;;;;;;;19.45;12.52;;;;;;;;;;4803418;29;20054;-79
2024/01/07 04:36:00;;;;;;;20.38;13.55;;;;;;;;;;4795879;29;20078;-79
2024/01/07 04:38:27;;;;;;;18.92;13.15;;;;;;;;;;4789208;29;20471;-79
2024/01/07 04:40:53;;;;;;;19.40;13.02;;;;;;;;;;4812811;29;20108;-79
2024/01/07 04:43:20;;;;;;;22.02;12.90;;;;;;;;;;4799741;29;20125;-79
2024/01/07 04:45:46;;;;;;;20.75;13.38;;;;;;;;;;4793476;29;20157;-78
2024/01/07 04:48:13;;;;;;;18.77;12.55;;;;;;;;;;4796057;29;20539;-78
2024/01/07 04:50:41;;;;;;;19.17;12.95;;;;;;;;;;4791126;29;20079;-79
2024/01/07 04:53:08;;;;;;;18.90;12.27;;;;;;;;;;4797757;29;20059;-78
2024/01/07 04:55:36;;;;;;;21.02;12.45;;;;;;;;;;4813410;29;20063;-78
2024/01/07 04:58:03;;;;;;;17.50;12.77;;;;;;;;;;4789904;29;20059;-78
2024/01/07 05:00:30;;;;;;;16.60;11.95;;;;;;;;;;4799182;29;20107;-79
2024/01/07 05:02:57;;;;;;;17.83;11.73;;;;;;;;;;4790356;29;20139;-78
2024/01/07 05:05:24;;;;;;;17.90;12.57;;;;;;;;;;4794984;29;20058;-78
2024/01/07 05:07:51;;;;;;;20.60;12.20;;;;;;;;;;4792987;29;20051;-78
2024/01/07 05:10:17;;;;;;;20.70;13.02;;;;;;;;;;4815440;29;20698;-79
2024/01/07 05:12:43;;;;;;;16.85;11.82;;;;;;;;;;4802966;29;20066;-78
2024/01/07 05:15:10;;;;;;;19.42;12.90;;;;;;;;;;4809355;29;20111;-76
2024/01/07 05:17:36;;;;;;;18.15;11.88;;;;;;;;;;4796841;29;20062;-77
2024/01/07 05:20:03;;;;;;;18.58;12.27;;;;;;;;;;4794076;29;20380;-78
2024/01/07 05:22:30;;;;;;;17.65;12.35;;;;;;;;;;4817692;29;20055;-77
2024/01/07 05:24:57;;;;;;;21.70;14.20;;;;;;;;;;4804309;29;20069;-78
2024/01/07 05:27:23;;;;;;;17.60;12.38;;;;;;;;;;4812564;29;20241;-78
2024/01/07 05:29:50;;;;;;;22.38;13.38;;;;;;;;;;4803690;29;20061;-76
2024/01/07 05:32:16;;;;;;;17.88;13.43;;;;;;;;;;4807417;29;20050;-77
2024/01/07 05:34:43;;;;;;;19.23;13.60;;;;;;;;;;4800570;29;20059;-77
2024/01/07 05:37:09;;;;;;;15.95;11.77;;;;;;;;;;4804214;29;20460;-78
2024/01/07 05:39:36;;;;;;;16.25;11.45;;;;;;;;;;4797728;29;20520;-77
2024/01/07 05:42:02;;;;;;;17.55;11.32;;;;;;;;;;4816486;29;20054;-77
2024/01/07 05:44:29;;;;;;;18.60;11.55;;;;;;;;;;4795933;29;20051;-77
2024/01/07 05:46:55;;;;;;;15.38;11.70;;;;;;;;;;4811770;29;20067;-78
2024/01/07 05:49:22;;;;;;;15.25;10.32;;;;;;;;;;4812131;29;20047;-76
2024/01/07 05:51:48;;;;;;;16.65;11.07;;;;;;;;;;4800746;29;20452;-77
2024/01/07 05:54:15;;;;;;;16.98;11.20;;;;;;;;;;4812678;29;20055;-78
2024/01/07 05:56:41;;;;;;;16.33;11.48;;;;;;;;;;4811322;29;20749;-77
2024/01/07 05:59:08;;;;;;;15.45;11.02;;;;;;;;;;4814930;29;20058;-78
2024/01/07 06:01:35;;;;;;;15.32;10.45;;;;;;;;;;4788992;29;20055;-78
2024/01/07 06:04:01;;;;;;;15.23;9.98;;;;;;;;;;4813993;29;20055;-78
2024/01/07 06:06:29;;;;;;;15.32;10.57;;;;;;;;;;4808966;29;20380;-78
2024/01/07 06:08:55;;;;;;;14.30;10.27;;;;;;;;;;4794828;29;20141;-78
2024/01/07 06:11:22;;;;;;;13.75;10.52;;;;;;;;;;4789398;29;20055;-77
2024/01/07 06:13:48;;;;;;;13.32;10.73;;;;;;;;;;4808070;29;20570;-78
2024/01/07 06:16:15;;;;;;;12.82;9.93;;;;;;;;;;4801911;29;20059;-79
2024/01/07 06:18:41;;;;;;;13.95;9.52;;;;;;;;;;4814615;29;20055;-78
2024/01/07 06:21:08;;;;;;;18.30;11.32;;;;;;;;;;4791101;29;20059;-80
2024/01/07 06:23:35;;;;;;;14.75;10.10;;;;;;;;;;4795641;29;20263;-76
2024/01/07 06:26:05;;;;;;;13.25;9.50;;;;;;;;;;4805775;29;20934;-78
2024/01/07 06:28:32;;;;;;;13.82;9.32;;;;;;;;;;4812926;29;20058;-77
2024/01/07 06:30:59;;;;;;;12.70;9.27;;;;;;;;;;4796201;29;20055;-79
2024/01/07 06:33:25;;;;;;;15.18;10.15;;;;;;;;;;4798854;29;20510;-78
2024/01/07 06:35:52;;;;;;;14.30;9.80;;;;;;;;;;4801163;29;20061;-78
2024/01/07 06:38:19;;;;;;;14.10;9.43;;;;;;;;;;4791127;29;20579;-77
2024/01/07 06:40:45;;;;;;;15.02;10.15;;;;;;;;;;4795456;29;20054;-77
2024/01/07 06:43:11;;;;;;;12.50;8.93;;;;;;;;;;4795559;29;20066;-78
2024/01/07 06:45:38;;;;;;;13.73;10.00;;;;;;;;;;4809441;29;20066;-78
2024/01/07 06:48:05;;;;;;;15.98;10.82;;;;;;;;;;4798463;29;20058;-77
2024/01/07 06:50:31;;;;;;;13.13;9.35;;;;;;;;;;4794174;29;20078;-80
2024/01/07 06:52:58;;;;;;;15.30;10.07;;;;;;;;;;4796102;29;20047;-78
2024/01/07 06:55:24;;;;;;;11.82;8.52;;;;;;;;;;4798940;29;20726;-80
2024/01/07 06:57:50;;;;;;;14.55;9.77;;;;;;;;;;4800504;29;20648;-80
2024/01/07 07:00:17;;;;;;;13.77;9.18;;;;;;;;;;4798476;29;20125;-78
2024/01/07 07:02:44;;;;;;;13.65;9.20;;;;;;;;;;4797649;29;20174;-81
2024/01/07 07:05:10;;;;;;;16.67;10.60;;;;;;;;;;4798926;29;20062;-82
2024/01/07 07:07:37;;;;;;;14.82;10.18;;;;;;;;;;4789494;29;20094;-81
2024/01/07 07:10:03;;;;;;;13.10;8.88;;;;;;;;;;4784302;29;20047;-81
2024/01/07 07:12:30;;;;;;;14.43;9.65;;;;;;;;;;4808149;29;20146;-80
2024/01/07 07:14:57;;;;;;;14.18;10.48;;;;;;;;;;4799401;29;20511;-79
2024/01/07 07:17:23;;;;;;;15.50;11.10;;;;;;;;;;4810322;29;20051;-79
2024/01/07 07:19:50;;;;;;;13.82;9.95;;;;;;;;;;4789094;29;20396;-80
2024/01/07 07:22:16;;;;;;;13.88;9.73;;;;;;;;;;4794710;29;20059;-78
2024/01/07 07:24:43;;;;;;;12.13;8.77;;;;;;;;;;4791418;29;20066;-78
2024/01/07 07:27:09;;;;;;;12.43;8.77;;;;;;;;;;4797157;29;20055;-78
2024/01/07 07:29:36;;;;;;;11.90;8.73;;;;;;;;;;4809719;29;20055;-79
2024/01/07 07:32:03;;;;;;;12.48;8.93;;;;;;;;;;4792791;29;20560;-80
2024/01/07 07:34:30;;;;;;;15.85;9.23;;;;;;;;;;4797536;29;20086;-79
2024/01/07 07:36:56;;;;;;;11.60;8.55;;;;;;;;;;4789532;29;20338;-79
2024/01/07 07:39:23;;;;;;;11.68;8.63;;;;;;;;;;4799443;29;20057;-83
2024/01/07 07:41:50;;;;;;;10.30;7.93;;;;;;;;;;4809631;29;20051;-81
2024/01/07 07:44:17;;;;;;;11.20;8.13;;;;;;;;;;4792853;29;20412;-82
2024/01/07 07:46:44;;;;;;;14.90;8.10;;;;;;;;;;4798751;29;20734;-81
2024/01/07 07:49:11;;;;;;;10.98;8.23;;;;;;;;;;4804512;29;20064;-81
2024/01/07 07:51:38;;;;;;;10.77;8.80;;;;;;;;;;4796090;29;20062;-79
2024/01/07 07:54:04;;;;;;;12.38;8.52;;;;;;;;;;4793713;29;20059;-80
2024/01/07 07:56:31;;;;;;;11.48;8.70;;;;;;;;;;4798571;29;20115;-79
2024/01/07 07:58:57;;;;;;;15.73;9.32;;;;;;;;;;4811771;29;20166;-79
2024/01/07 08:01:24;;;;;;;15.68;9.68;;;;;;;;;;4790833;29;20061;-79
2024/01/07 08:03:50;;;;;;;13.13;9.15;;;;;;;;;;4803685;29;20063;-79
2024/01/07 08:06:17;;;;;;;11.50;9.05;;;;;;;;;;4790204;29;20114;-79
2024/01/07 08:08:43;;;;;;;11.23;7.78;;;;;;;;;;4797113;29;20082;-79
2024/01/07 08:11:10;;;;;;;12.52;8.55;;;;;;;;;;4798095;29;20073;-79
2024/01/07 08:13:37;;;;;;;11.57;8.80;;;;;;;;;;4791222;29;20051;-79
2024/01/07 08:16:04;;;;;;;12.80;8.77;;;;;;;;;;4793727;29;20062;-79
2024/01/07 08:18:30;;;;;;;10.38;7.82;;;;;;;;;;4790535;29;20063;-79
2024/01/07 08:20:57;;;;;;;10.88;7.68;;;;;;;;;;4810897;29;20055;-80
2024/01/07 08:23:24;;;;;;;8.82;6.60;;;;;;;;;;4796677;29;20105;-78
2024/01/07 08:25:53;;;;;;;10.10;7.35;;;;;;;;;;4792735;29;20059;-79
2024/01/07 08:28:20;;;;;;;10.35;7.93;;;;;;;;;;4798028;29;20134;-78
2024/01/07 08:30:47;;;;;;;9.23;7.13;;;;;;;;;;4783763;29;21072;-79
2024/01/07 08:33:13;;;;;;;9.45;7.70;;;;;;;;;;4791250;29;20082;-79
2024/01/07 08:35:40;;;;;;;10.13;7.85;;;;;;;;;;4795319;29;20065;-78
2024/01/07 08:38:06;;;;;;;9.20;7.45;;;;;;;;;;4795144;29;20058;-78
2024/01/07 08:40:34;;;;;;;9.30;6.43;;;;;;;;;;4808956;29;20060;-80
2024/01/07 08:43:01;;;;;;;10.02;7.43;;;;;;;;;;4791180;29;20073;-80
2024/01/07 08:45:28;;;;;;;10.25;7.68;;;;;;;;;;4794298;29;20499;-79
2024/01/07 08:47:55;;;;;;;11.60;7.70;;;;;;;;;;4803030;29;20067;-78
2024/01/07 08:50:22;;;;;;;9.50;6.88;;;;;;;;;;4786595;29;20055;-79
2024/01/07 08:52:48;;;;;;;9.85;7.28;;;;;;;;;;4796208;29;20054;-74
2024/01/07 08:55:15;;;;;;;11.07;8.07;;;;;;;;;;4792187;29;20145;-74
2024/01/07 08:57:42;;;;;;;11.02;7.40;;;;;;;;;;4794984;29;20069;-75
2024/01/07 09:00:08;;;;;;;10.60;7.95;;;;;;;;;;4799175;29;20073;-74
2024/01/07 09:02:35;;;;;;;11.60;7.90;;;;;;;;;;4796901;29;20069;-74
2024/01/07 09:05:06;;;;;;;10.77;7.22;;;;;;;;;;4797425;29;20552;-74
2024/01/07 09:07:33;;;;;;;11.68;7.72;;;;;;;;;;4789951;29;20066;-74
2024/01/07 09:10:00;;;;;;;10.32;7.10;;;;;;;;;;4797892;29;20397;-74
2024/01/07 09:12:27;;;;;;;11.00;7.75;;;;;;;;;;4786905;29;20054;-75
2024/01/07 09:14:53;;;;;;;13.07;7.82;;;;;;;;;;4807823;29;20074;-77
2024/01/07 09:17:19;;;;;;;11.20;7.68;;;;;;;;;;4792866;29;20055;-76
2024/01/07 09:19:47;;;;;;;10.55;7.18;;;;;;;;;;4810803;29;20059;-76
2024/01/07 09:22:13;;;;;;;10.55;7.35;;;;;;;;;;4796706;29;20055;-77
2024/01/07 09:24:40;;;;;;;12.02;6.95;;;;;;;;;;4793030;29;20064;-76
2024/01/07 09:27:06;;;;;;;12.38;7.18;;;;;;;;;;4789949;29;20071;-76
2024/01/07 09:29:32;;;;;;;10.30;6.63;;;;;;;;;;4788893;29;20162;-76
2024/01/07 09:31:59;;;;;;;10.57;7.50;;;;;;;;;;4796966;29;20087;-76
2024/01/07 09:34:25;;;;;;;11.02;6.82;;;;;;;;;;4797278;29;20063;-76
2024/01/07 09:36:52;;;;;;;9.73;6.70;;;;;;;;;;4787097;29;20061;-75
2024/01/07 09:39:18;;;;;;;8.52;6.38;;;;;;;;;;4798242;29;20069;-76
2024/01/07 09:41:45;;;;;;;9.43;6.80;;;;;;;;;;4787854;29;20103;-76
2024/01/07 09:44:11;;;;;;;10.77;7.20;;;;;;;;;;4794516;29;20066;-75
2024/01/07 09:46:39;;;;;;;12.88;7.50;;;;;;;;;;4805557;29;20537;-75
2024/01/07 09:49:05;;;;;;;10.93;6.87;;;;;;;;;;4802728;29;20116;-75
2024/01/07 09:51:34;;;;;;;11.63;7.22;;;;;;;;;;4811172;29;20959;-75
2024/01/07 09:54:03;;;;;;;11.27;7.47;;;;;;;;;;4791603;29;20057;-76
2024/01/07 09:56:36;;;;;;;13.15;7.15;;;;;;;;;;4794236;29;20086;-75
2024/01/07 09:59:02;;;;;;;11.60;7.43;;;;;;;;;;4791536;29;20109;-76
2024/01/07 10:01:29;;;;;;;11.45;6.50;;;;;;;;;;4800590;29;20050;-75
2024/01/07 10:03:56;;;;;;;13.30;7.30;;;;;;;;;;4799404;29;20094;-75
2024/01/07 10:06:23;;;;;;;9.55;5.85;;;;;;;;;;4807727;29;20058;-75
2024/01/07 10:08:49;;;;;;;9.32;5.95;;;;;;;;;;4796364;29;20066;-75
2024/01/07 10:11:16;;;;;;;12.02;6.10;;;;;;;;;;4784426;29;20110;-75
2024/01/07 10:13:44;;;;;;;10.38;6.32;;;;;;;;;;4811175;29;20463;-75
2024/01/07 10:16:11;;;;;;;12.55;6.75;;;;;;;;;;4813413;29;20065;-75
2024/01/07 10:18:38;;;;;;;9.95;5.82;;;;;;;;;;4795478;29;20305;-75
2024/01/07 10:21:06;;;;;;;9.38;6.07;;;;;;;;;;4800103;29;20153;-76
2024/01/07 10:23:32;;;;;;;9.98;5.78;;;;;;;;;;4789084;29;20127;-75
2024/01/07 10:25:59;;;;;;;7.13;4.63;;;;;;;;;;4809117;29;20055;-75
2024/01/07 10:28:33;;;;;;;7.80;5.03;;;;;;;;;;4794028;29;20130;-75
2024/01/07 10:31:00;;;;;;;6.82;5.03;;;;;;;;;;4798668;29;20086;-75
2024/01/07 10:33:30;;;;;;;6.47;4.40;;;;;;;;;;4793226;29;20059;-75
2024/01/07 10:36:00;;;;;;;7.07;4.85;;;;;;;;;;4794971;29;20054;-75
2024/01/07 10:38:27;;;;;;;8.95;4.40;;;;;;;;;;4796118;29;20179;-75
2024/01/07 10:40:54;;;;;;;7.07;5.32;;;;;;;;;;4803749;29;20522;-75
2024/01/07 10:43:20;;;;;;;8.93;4.88;;;;;;;;;;4799395;29;20054;-76
2024/01/07 10:45:50;;;;;;;8.20;4.78;;;;;;;;;;4799492;29;20082;-75
2024/01/07 10:48:18;;;;;;;7.50;4.63;;;;;;;;;;4793864;29;20047;-76
2024/01/07 10:50:46;;;;;;;7.43;4.90;;;;;;;;;;4812154;29;20054;-75
2024/01/07 10:53:17;;;;;;;6.68;4.45;;;;;;;;;;4788895;29;20077;-75
2024/01/07 10:55:47;;;;;;;6.40;4.38;;;;;;;;;;4791128;29;20087;-75
2024/01/07 10:58:13;;;;;;;6.70;4.53;;;;;;;;;;4807270;29;20119;-75
2024/01/07 11:00:40;;;;;;;5.80;4.07;;;;;;;;;;4798841;29;20123;-75
2024/01/07 11:03:13;;;;;;;7.38;4.32;;;;;;;;;;4797424;29;20065;-76
2024/01/07 11:05:47;;;;;;;7.13;4.60;;;;;;;;;;4793338;29;20090;-75
2024/01/07 11:08:40;;;;;;;6.85;4.40;;;;;;;;;;4804867;29;20077;-75
2024/01/07 11:11:26;;;;;;;7.47;4.65;;;;;;;;;;4776282;29;20066;-75
2024/01/07 11:13:52;;;;;;;6.70;4.85;;;;;;;;;;4798648;29;20501;-75
2024/01/07 11:16:46;;;;;;;6.45;4.20;;;;;;;;;;4794110;29;20058;-75
2024/01/07 11:19:15;;;;;;;7.07;4.50;;;;;;;;;;4792333;29;20051;-75
2024/01/07 11:21:42;;;;;;;5.75;3.83;;;;;;;;;;4789798;29;20047;-75
2024/01/07 11:24:08;;;;;;;7.30;4.15;;;;;;;;;;4796628;29;20516;-77
2024/01/07 11:26:35;;;;;;;6.45;3.65;;;;;;;;;;4797188;29;20051;-74
2024/01/07 11:29:01;;;;;;;6.53;3.33;;;;;;;;;;4789760;29;20100;-75
2024/01/07 11:31:40;;;;;;;5.90;3.80;;;;;;;;;;4797850;29;20141;-74
2024/01/07 11:34:07;;;;;;;4.35;2.88;;;;;;;;;;4791064;29;20055;-74
2024/01/07 11:36:37;;;;;;;5.65;3.28;;;;;;;;;;4794276;29;20065;-74
2024/01/07 11:39:05;;;;;;;5.30;3.05;;;;;;;;;;4798519;29;20062;-74
2024/01/07 11:41:32;;;;;;;;;;;;;;;;;;4794658;29;20088;-75
2024/01/07 11:43:59;;;;;;;5.90;3.03;;;;;;;;;;4799407;29;19954;-74
2024/01/07 11:46:32;;;;;;;5.35;3.10;;;;;;;;;;4794028;29;20063;-75
2024/01/07 11:48:58;;;;;;;8.90;2.90;;;;;;;;;;4804971;29;20055;-75
2024/01/07 11:51:26;;;;;;;4.97;3.15;;;;;;;;;;4793790;29;20058;-74
2024/01/07 11:53:52;;;;;;;5.60;2.50;;;;;;;;;;4812693;29;20561;-74
2024/01/07 11:56:19;;;;;;;4.70;2.63;;;;;;;;;;4798626;29;20561;-75
2024/01/07 11:58:45;;;;;;;3.08;2.28;;;;;;;;;;4792677;29;20112;-75
2024/01/07 12:01:14;;;;;;;3.88;2.30;;;;;;;;;;4798999;29;20506;-74
2024/01/07 12:03:41;;;;;;;;;;;;;;;;;;4791201;29;20171;-74
2024/01/07 12:06:07;;;;;;;4.90;1.92;;;;;;;;;;4793663;29;19940;-74
2024/01/07 12:08:34;;;;;;;3.42;2.00;;;;;;;;;;4813503;29;20278;-75
2024/01/07 12:11:01;;;;;;;4.90;2.72;;;;;;;;;;4794023;29;20051;-75
2024/01/07 12:13:28;;;;;;;4.57;2.30;;;;;;;;;;4802084;29;20131;-77
2024/01/07 12:15:54;;;;;;;5.75;2.78;;;;;;;;;;4796494;29;20247;-74
2024/01/07 12:18:21;;;;;;;4.18;2.55;;;;;;;;;;4796737;29;20051;-75
2024/01/07 12:20:57;;;;;;;4.95;2.55;;;;;;;;;;4797794;29;20142;-75
2024/01/07 12:23:25;;;;;;;4.45;2.03;;;;;;;;;;4796056;29;20086;-75
2024/01/07 12:25:52;;;;;;;6.73;2.17;;;;;;;;;;4801034;29;20462;-74
2024/01/07 12:28:19;;;;;;;3.30;2.10;;;;;;;;;;4795780;29;20314;-75
2024/01/07 12:30:49;;;;;;;3.17;2.17;;;;;;;;;;4800680;29;20138;-78
2024/01/07 12:33:18;;;;;;;4.15;2.45;;;;;;;;;;4791900;29;20130;-76
2024/01/07 12:35:46;;;;;;;4.88;2.95;;;;;;;;;;4798394;29;20085;-76
2024/01/07 12:38:12;;;;;;;3.53;2.03;;;;;;;;;;4800298;29;20058;-75
2024/01/07 12:40:39;;;;;;;4.25;2.20;;;;;;;;;;4794514;29;20062;-75
2024/01/07 12:43:08;;;;;;;2.40;1.80;;;;;;;;;;4798109;29;20059;-76
2024/01/07 12:45:35;;;;;;;3.35;1.90;;;;;;;;;;4792406;29;20064;-75
2024/01/07 12:48:02;;;;;;;3.75;1.95;;;;;;;;;;4791768;29;20055;-75
2024/01/07 12:50:32;;;;;;;5.53;1.90;;;;;;;;;;4795688;29;20456;-73
2024/01/07 12:52:59;;;;;;;2.28;1.73;;;;;;;;;;4801940;29;20310;-76
2024/01/07 12:55:26;;;;;;;3.28;1.80;;;;;;;;;;4801502;29;20061;-76
2024/01/07 12:57:54;;;;;;;3.47;1.77;;;;;;;;;;4789852;29;20082;-76
2024/01/07 13:00:20;;;;;;;2.67;1.70;;;;;;;;;;4796308;29;20728;-76
2024/01/07 13:02:48;;;;;;;3.17;2.05;;;;;;;;;;4807722;29;20777;-75
2024/01/07 13:05:15;;;;;;;3.72;1.73;;;;;;;;;;4807797;29;20051;-76
2024/01/07 13:07:41;;;;;;;5.95;2.30;;;;;;;;;;4797493;29;20445;-76
2024/01/07 13:10:09;;;;;;;4.93;2.17;;;;;;;;;;4805084;29;20067;-75
2024/01/07 13:12:36;;;;;;;2.38;1.70;;;;;;;;;;4812102;29;20355;-76
2024/01/07 13:15:14;;;;;;;3.58;1.73;;;;;;;;;;4789856;29;20059;-76
2024/01/07 13:17:43;;;;;;;2.60;1.75;;;;;;;;;;4794319;29;20062;-75
2024/01/07 13:20:11;;;;;;;3.70;1.73;;;;;;;;;;4811590;29;20879;-75
2024/01/07 13:22:38;;;;;;;2.80;1.60;;;;;;;;;;4792334;29;20150;-75
2024/01/07 13:25:05;;;;;;;3.63;1.88;;;;;;;;;;4797785;29;20469;-76
2024/01/07 13:27:31;;;;;;;4.38;1.70;;;;;;;;;;4792317;29;20179;-76
2024/01/07 13:30:01;;;;;;;9.48;2.42;;;;;;;;;;4793771;29;20078;-76
2024/01/07 13:32:27;;;;;;;3.83;2.00;;;;;;;;;;4809278;29;20058;-76
2024/01/07 13:34:54;;;;;;;4.78;2.10;;;;;;;;;;4800114;29;20059;-76
2024/01/07 13:37:21;;;;;;;2.83;1.75;;;;;;;;;;4815519;29;20050;-75
2024/01/07 13:39:49;;;;;;;3.25;1.63;;;;;;;;;;4809165;29;20066;-76
2024/01/07 13:42:16;;;;;;;2.75;1.67;;;;;;;;;;4801302;29;20086;-73
2024/01/07 13:44:46;;;;;;;3.92;1.55;;;;;;;;;;4793686;29;20144;-75
2024/01/07 13:47:17;;;;;;;3.13;1.70;;;;;;;;;;4797150;29;20061;-76
2024/01/07 13:49:46;;;;;;;2.78;1.58;;;;;;;;;;4801035;29;20105;-75
2024/01/07 13:52:13;;;;;;;2.38;1.67;;;;;;;;;;4797402;29;20059;-75
2024/01/07 13:54:41;;;;;;;2.38;1.38;;;;;;;;;;4812199;29;20159;-76
2024/01/07 13:57:08;;;;;;;2.53;1.55;;;;;;;;;;4796685;29;20059;-76
2024/01/07 13:59:35;;;;;;;4.78;1.73;;;;;;;;;;4795525;29;20066;-73
2024/01/07 14:02:02;;;;;;;2.50;1.50;;;;;;;;;;4800747;29;20058;-75
2024/01/07 14:04:29;;;;;;;2.30;1.37;;;;;;;;;;4811903;29;20050;-75
2024/01/07 14:06:56;;;;;;;2.70;1.60;;;;;;;;;;4801466;29;20386;-77
2024/01/07 14:09:24;;;;;;;2.45;1.58;;;;;;;;;;4794783;29;20154;-75
2024/01/07 14:11:51;;;;;;;2.03;1.60;;;;;;;;;;4799459;29;20059;-76
2024/01/07 14:14:20;;;;;;;2.75;1.63;;;;;;;;;;4785340;29;20051;-76
2024/01/07 14:16:47;;;;;;;2.55;1.60;;;;;;;;;;4800341;29;20137;-74
2024/01/07 14:19:16;;;;;;;1.45;1.20;;;;;;;;;;4802203;29;20248;-75
2024/01/07 14:21:43;;;;;;;2.92;1.60;;;;;;;;;;4795248;29;20057;-73
2024/01/07 14:24:09;;;;;;;2.65;1.50;;;;;;;;;;4802157;29;20087;-74
2024/01/07 14:26:36;;;;;;;2.10;1.42;;;;;;;;;;4791559;29;20158;-74
2024/01/07 14:29:03;;;;;;;1.95;1.40;;;;;;;;;;4798180;29;20507;-74